createdAt,value
2023-05-18T00:00:18.196Z,95.60
2023-05-18T00:02:48.447Z,95.80
2023-05-18T00:05:18.114Z,96.70
2023-05-18T00:07:45.581Z,96.50
2023-05-18T00:10:12.767Z,96.60
2023-05-18T00:12:40.013Z,96.50
2023-05-18T00:15:07.720Z,96.40
2023-05-18T00:17:34.866Z,96.50
2023-05-18T00:20:01.994Z,96.70
2023-05-18T00:22:30.161Z,96.40
2023-05-18T00:24:57.191Z,96.70
2023-05-18T00:27:24.343Z,96.90
2023-05-18T00:29:52.080Z,97.70
2023-05-18T00:32:19.210Z,97.60
2023-05-18T00:34:46.288Z,98.20
2023-05-18T00:37:13.380Z,97.70
2023-05-18T00:39:40.567Z,97.80
2023-05-18T00:42:07.829Z,97.90
2023-05-18T00:44:34.924Z,97.50
2023-05-18T00:47:02.180Z,98.40
2023-05-18T00:49:29.341Z,99.70
2023-05-18T00:51:57.027Z,99.90
2023-05-18T00:54:26.396Z,99.90
2023-05-18T00:56:53.995Z,99.90
2023-05-18T00:59:22.186Z,99.90
2023-05-18T01:01:49.464Z,99.90
2023-05-18T01:04:16.518Z,99.90
2023-05-18T01:06:43.934Z,99.90
2023-05-18T01:09:13.591Z,99.90
2023-05-18T01:12:01.184Z,99.90
2023-05-18T01:14:56.356Z,99.90
2023-05-18T01:18:10.457Z,99.90
2023-05-18T01:20:47.547Z,99.90
2023-05-18T01:23:45.361Z,99.90
2023-05-18T01:26:29.986Z,99.90
2023-05-18T01:29:01.486Z,99.90
2023-05-18T01:31:29.312Z,99.90
2023-05-18T01:33:56.561Z,99.90
2023-05-18T01:36:23.739Z,99.90
2023-05-18T01:38:53.525Z,99.90
2023-05-18T01:41:23.434Z,99.90
2023-05-18T01:44:33.069Z,99.90
2023-05-18T01:47:12.182Z,99.90
2023-05-18T01:50:01.544Z,99.90
2023-05-18T01:53:06.308Z,99.90
2023-05-18T01:55:36.833Z,99.90
2023-05-18T01:58:06.844Z,99.90
2023-05-18T02:00:34.984Z,99.90
2023-05-18T02:03:02.228Z,99.90
2023-05-18T02:05:29.690Z,99.90
2023-05-18T02:07:57.407Z,99.90
2023-05-18T02:10:24.657Z,99.90
2023-05-18T02:12:53.834Z,99.90
2023-05-18T02:15:22.236Z,99.90
2023-05-18T02:17:49.947Z,99.90
2023-05-18T02:20:20.191Z,99.90
2023-05-18T02:22:47.282Z,99.90
2023-05-18T02:25:14.412Z,99.90
2023-05-18T02:27:41.795Z,99.90
2023-05-18T02:30:09.499Z,99.90
2023-05-18T02:32:39.689Z,99.90
2023-05-18T02:35:07.761Z,99.90
2023-05-18T02:37:39.662Z,99.90
2023-05-18T02:40:10.734Z,99.90
2023-05-18T02:42:37.973Z,99.90
2023-05-18T02:45:05.725Z,99.90
2023-05-18T02:47:33.394Z,99.90
2023-05-18T02:50:00.558Z,99.90
2023-05-18T02:52:29.089Z,99.90
2023-05-18T02:54:56.458Z,99.90
2023-05-18T02:57:48.204Z,99.90
2023-05-18T03:00:22.476Z,99.90
2023-05-18T03:02:50.447Z,99.90
2023-05-18T03:05:18.495Z,99.90
2023-05-18T03:07:50.942Z,99.90
2023-05-18T03:10:20.524Z,99.90
2023-05-18T03:12:48.357Z,99.90
2023-05-18T03:15:16.372Z,99.90
2023-05-18T03:17:44.047Z,99.90
2023-05-18T03:20:14.496Z,99.90
2023-05-18T03:22:42.151Z,99.90
2023-05-18T03:25:09.376Z,99.90
2023-05-18T03:27:37.999Z,99.90
2023-05-18T03:30:06.400Z,99.90
2023-05-18T03:32:34.132Z,99.90
2023-05-18T03:35:02.005Z,99.90
2023-05-18T03:37:30.233Z,99.90
2023-05-18T03:40:12.810Z,99.90
2023-05-18T03:42:42.077Z,99.90
2023-05-18T03:45:10.798Z,99.90
2023-05-18T03:47:39.341Z,99.90
2023-05-18T03:50:08.298Z,99.90
2023-05-18T03:52:36.359Z,99.90
2023-05-18T03:55:04.537Z,99.90
2023-05-18T03:57:33.284Z,99.90
2023-05-18T04:00:01.920Z,99.90
2023-05-18T04:02:31.143Z,99.90
2023-05-18T04:04:58.370Z,99.90
2023-05-18T04:07:27.619Z,99.90
2023-05-18T04:09:56.249Z,99.90
2023-05-18T04:12:23.691Z,99.90
2023-05-18T04:14:50.858Z,99.90
2023-05-18T04:17:22.293Z,99.90
2023-05-18T04:19:50.304Z,99.90
2023-05-18T04:22:17.700Z,99.90
2023-05-18T04:24:48.249Z,99.90
2023-05-18T04:27:15.512Z,99.90
2023-05-18T04:29:44.018Z,99.90
2023-05-18T04:32:11.520Z,99.90
2023-05-18T04:34:39.253Z,99.90
2023-05-18T04:37:06.882Z,99.90
2023-05-18T04:39:39.535Z,99.90
2023-05-18T04:42:10.707Z,99.90
2023-05-18T04:44:39.092Z,99.90
2023-05-18T04:47:08.624Z,99.90
2023-05-18T04:49:36.858Z,99.90
2023-05-18T04:52:06.625Z,99.90
2023-05-18T04:54:33.813Z,99.90
2023-05-18T04:57:02.264Z,99.90
2023-05-18T04:59:29.574Z,99.90
2023-05-18T05:01:56.726Z,99.90
2023-05-18T05:04:25.217Z,99.90
2023-05-18T05:06:52.271Z,99.90
2023-05-18T05:09:19.496Z,99.90
2023-05-18T05:11:46.861Z,99.90
2023-05-18T05:14:14.188Z,99.90
2023-05-18T05:16:41.428Z,99.90
2023-05-18T05:19:08.597Z,99.90
2023-05-18T05:21:36.260Z,99.90
2023-05-18T05:24:06.088Z,99.90
2023-05-18T05:26:33.483Z,99.90
2023-05-18T05:29:00.764Z,99.90
2023-05-18T05:31:27.954Z,99.90
2023-05-18T05:33:55.171Z,99.90
2023-05-18T05:36:22.373Z,99.90
2023-05-18T05:38:49.714Z,99.90
2023-05-18T05:41:16.877Z,99.90
2023-05-18T05:43:44.052Z,99.90
2023-05-18T05:46:11.369Z,99.90
2023-05-18T05:48:38.717Z,99.90
2023-05-18T05:51:05.975Z,99.90
2023-05-18T05:53:33.793Z,99.90
2023-05-18T05:56:00.913Z,99.90
2023-05-18T05:58:28.224Z,99.90
2023-05-18T06:00:59.028Z,99.90
2023-05-18T06:03:26.644Z,99.90
2023-05-18T06:05:56.405Z,99.90
2023-05-18T06:10:56.022Z,99.90
2023-05-18T06:13:24.332Z,99.90
2023-05-18T06:15:54.599Z,99.90
2023-05-18T06:18:22.926Z,99.80
2023-05-18T06:20:51.341Z,99.90
2023-05-18T06:23:22.868Z,99.90
2023-05-18T06:26:16.847Z,99.90
2023-05-18T06:28:50.682Z,99.90
2023-05-18T09:06:01.736Z,70.00
2023-05-18T09:08:29.384Z,72.30
2023-05-18T09:10:58.674Z,73.20
2023-05-18T09:13:27.119Z,72.80
2023-05-18T09:15:54.287Z,68.40
2023-05-18T09:18:23.951Z,67.20
2023-05-18T09:20:52.500Z,65.60
2023-05-18T09:23:19.716Z,64.70
2023-05-18T09:25:49.797Z,67.00
2023-05-18T09:28:35.880Z,68.30
2023-05-18T09:31:05.111Z,66.70
2023-05-18T09:33:39.538Z,66.40
2023-05-18T09:36:07.840Z,65.30
2023-05-18T09:38:39.423Z,66.50
2023-05-18T09:41:17.633Z,68.30
2023-05-18T09:43:47.913Z,68.90
2023-05-18T09:46:15.063Z,68.70
2023-05-18T09:48:45.535Z,71.00
2023-05-18T09:51:18.112Z,69.60
2023-05-18T09:53:53.204Z,70.20
2023-05-18T09:56:21.592Z,71.40
2023-05-18T09:58:48.713Z,71.40
2023-05-18T10:01:15.975Z,72.20
2023-05-18T10:03:45.319Z,71.20
2023-05-18T10:06:15.295Z,74.50
2023-05-18T10:08:42.419Z,74.30
2023-05-18T10:11:09.536Z,74.30
2023-05-18T10:13:36.805Z,75.00
2023-05-18T10:16:07.396Z,76.70
2023-05-18T10:18:38.590Z,76.70
2023-05-18T10:21:09.905Z,76.70
2023-05-18T10:23:37.871Z,77.80
2023-05-18T10:26:07.579Z,76.40
2023-05-18T10:28:55.569Z,80.00
2023-05-18T10:31:24.879Z,80.70
2023-05-18T10:36:21.795Z,79.00
2023-05-18T10:38:49.805Z,78.70
2023-05-18T10:41:21.755Z,76.90
2023-05-18T10:43:49.711Z,78.70
2023-05-18T10:46:17.257Z,78.00
2023-05-18T10:48:51.444Z,75.30
2023-05-18T10:51:20.323Z,77.00
2023-05-18T10:53:48.397Z,77.00
2023-05-18T10:56:18.931Z,75.70
2023-05-18T10:58:47.787Z,78.20
2023-05-18T11:01:15.904Z,76.50
2023-05-18T11:03:43.226Z,75.50
2023-05-18T11:06:12.187Z,75.60
2023-05-18T11:08:44.639Z,75.20
2023-05-18T11:11:11.837Z,74.60
2023-05-18T11:13:50.717Z,71.10
2023-05-18T11:16:19.971Z,75.50
2023-05-18T11:18:52.438Z,74.10
2023-05-18T11:21:52.542Z,73.20
2023-05-18T11:24:32.913Z,77.20
2023-05-18T11:27:16.127Z,71.70
2023-05-18T11:29:57.718Z,75.00
2023-05-18T11:32:33.101Z,74.30
2023-05-18T11:35:00.333Z,77.20
2023-05-18T11:38:06.871Z,76.00
2023-05-18T11:40:48.561Z,77.00
2023-05-18T11:43:23.254Z,75.30
2023-05-18T11:45:59.271Z,79.60
2023-05-18T11:48:31.618Z,75.60
2023-05-18T11:50:58.912Z,79.40
2023-05-18T11:53:27.401Z,75.00
2023-05-18T11:55:55.247Z,73.50
2023-05-18T11:58:25.376Z,73.40
2023-05-18T12:00:52.737Z,69.80
2023-05-18T12:03:24.774Z,71.60
2023-05-18T12:05:52.705Z,72.40
2023-05-18T12:08:20.412Z,69.30
2023-05-18T12:10:48.979Z,71.50
2023-05-18T12:13:17.899Z,71.60
2023-05-18T12:15:45.707Z,71.40
2023-05-18T12:18:12.939Z,72.40
2023-05-18T12:20:41.132Z,69.40
2023-05-18T12:23:08.295Z,66.80
2023-05-18T12:25:36.628Z,70.50
2023-05-18T12:28:04.930Z,69.90
2023-05-18T12:30:35.790Z,69.20
2023-05-18T12:33:03.731Z,67.70
2023-05-18T12:35:31.909Z,67.70
2023-05-18T12:38:02.788Z,68.40
2023-05-18T12:40:44.604Z,70.20
2023-05-18T12:43:13.119Z,68.00
2023-05-18T12:45:41.236Z,68.10
2023-05-18T12:48:11.089Z,68.20
2023-05-18T12:50:47.405Z,71.40
2023-05-18T12:53:15.118Z,67.40
2023-05-18T12:55:42.163Z,71.20
2023-05-18T12:58:19.371Z,67.10
2023-05-18T13:00:48.762Z,68.60
2023-05-18T13:03:18.155Z,64.70
2023-05-18T13:05:46.685Z,67.80
2023-05-18T13:08:23.759Z,65.40
2023-05-18T13:11:01.333Z,67.80
2023-05-18T13:13:33.280Z,67.60
2023-05-18T13:16:00.653Z,72.30
2023-05-18T13:18:28.629Z,70.60
2023-05-18T13:20:58.589Z,76.50
2023-05-18T13:23:28.857Z,70.60
2023-05-18T13:25:58.530Z,71.50
2023-05-18T13:28:27.367Z,74.40
2023-05-18T13:30:54.651Z,75.80
2023-05-18T13:33:21.783Z,71.50
2023-05-18T13:35:49.952Z,71.30
2023-05-18T13:38:17.650Z,71.80
2023-05-18T13:40:46.505Z,73.30
2023-05-18T13:43:14.183Z,70.20
2023-05-18T13:45:42.510Z,66.80
2023-05-18T13:48:10.648Z,68.60
2023-05-18T13:50:38.870Z,67.40
2023-05-18T13:53:06.864Z,65.00
2023-05-18T13:55:34.445Z,66.10
2023-05-18T13:58:02.239Z,69.60
2023-05-18T14:00:29.435Z,70.10
2023-05-18T14:02:57.055Z,70.10
2023-05-18T14:05:24.724Z,67.70
2023-05-18T14:07:54.945Z,67.10
2023-05-18T14:10:22.048Z,66.90
2023-05-18T14:12:49.309Z,69.80
2023-05-18T14:15:16.466Z,71.40
2023-05-18T14:17:44.128Z,69.40
2023-05-18T14:20:12.472Z,70.10
2023-05-18T14:22:39.736Z,68.40
2023-05-18T14:25:07.179Z,68.60
2023-05-18T14:27:34.523Z,66.30
2023-05-18T14:30:02.137Z,69.60
2023-05-18T14:32:29.302Z,69.00
2023-05-18T14:34:58.117Z,68.50
2023-05-18T14:37:25.696Z,70.70
2023-05-18T14:39:52.828Z,67.60
2023-05-18T14:42:19.988Z,69.70
2023-05-18T14:44:47.229Z,71.40
2023-05-18T14:47:14.473Z,69.50
2023-05-18T14:49:41.718Z,70.50
2023-05-18T14:52:09.294Z,70.70
2023-05-18T14:54:36.668Z,70.30
2023-05-18T14:57:04.028Z,69.20
2023-05-18T14:59:31.249Z,68.40
2023-05-18T15:01:58.521Z,70.30
2023-05-18T15:04:25.956Z,70.70
2023-05-18T15:06:53.180Z,71.00
2023-05-18T15:09:20.443Z,69.80
2023-05-18T15:11:47.611Z,71.90
2023-05-18T15:14:14.750Z,71.60
2023-05-18T15:16:42.634Z,70.00
2023-05-18T15:19:10.058Z,68.70
2023-05-18T15:21:37.232Z,69.10
2023-05-18T15:24:04.488Z,70.30
2023-05-18T15:26:32.019Z,72.70
2023-05-18T15:28:59.089Z,72.70
2023-05-18T15:31:26.313Z,70.40
2023-05-18T15:33:53.418Z,70.50
2023-05-18T15:36:21.742Z,69.60
2023-05-18T15:38:48.871Z,70.30
2023-05-18T15:41:15.987Z,69.50
2023-05-18T15:43:43.697Z,70.10
2023-05-18T15:46:11.035Z,71.10
2023-05-18T15:48:38.144Z,66.90
2023-05-18T15:51:05.273Z,68.90
2023-05-18T15:53:32.290Z,67.90
2023-05-18T15:55:59.786Z,70.00
2023-05-18T15:58:26.994Z,70.40
2023-05-18T16:00:54.360Z,71.80
2023-05-18T16:03:21.665Z,73.80
2023-05-18T16:05:48.836Z,72.80
2023-05-18T16:08:16.010Z,71.40
2023-05-18T16:10:43.187Z,72.30
2023-05-18T16:13:10.217Z,70.30
2023-05-18T16:15:38.460Z,72.70
2023-05-18T16:18:05.974Z,71.00
2023-05-18T16:20:33.295Z,74.00
2023-05-18T16:23:00.622Z,74.60
2023-05-18T16:25:28.870Z,71.30
2023-05-18T16:27:55.976Z,73.80
2023-05-18T16:30:23.236Z,70.90
2023-05-18T16:32:50.552Z,70.00
2023-05-18T16:35:17.852Z,72.30
2023-05-18T16:37:44.907Z,74.30
2023-05-18T16:40:12.298Z,72.30
2023-05-18T16:42:39.415Z,76.20
2023-05-18T16:45:06.985Z,81.20
2023-05-18T16:47:34.132Z,78.70
2023-05-18T16:50:01.418Z,76.50
2023-05-18T16:52:28.601Z,74.20
2023-05-18T16:54:55.897Z,75.60
2023-05-18T16:57:25.396Z,76.90
2023-05-18T16:59:54.501Z,85.20
2023-05-18T17:02:21.776Z,87.20
2023-05-18T17:04:52.298Z,79.40
2023-05-18T17:07:19.415Z,75.40
2023-05-18T17:09:46.499Z,76.70
2023-05-18T17:12:13.586Z,84.30
2023-05-18T17:14:40.603Z,82.20
2023-05-18T17:17:08.544Z,81.40
2023-05-18T17:19:36.256Z,79.60
2023-05-18T17:22:03.943Z,83.00
2023-05-18T17:24:31.323Z,79.30
2023-05-18T17:26:59.479Z,75.20
2023-05-18T17:29:27.250Z,78.00
2023-05-18T17:31:54.634Z,79.20
2023-05-18T17:34:22.232Z,81.40
2023-05-18T17:36:49.747Z,77.90
2023-05-18T17:39:16.861Z,77.20
2023-05-18T17:41:44.405Z,79.90
2023-05-18T17:44:14.714Z,77.70
2023-05-18T17:46:42.244Z,79.20
2023-05-18T17:49:09.503Z,78.40
2023-05-18T17:51:36.726Z,78.50
2023-05-18T17:54:04.342Z,78.90
2023-05-18T17:56:31.868Z,77.40
2023-05-18T17:58:59.484Z,78.20
2023-05-18T18:01:27.461Z,78.00
2023-05-18T18:03:55.656Z,77.90
2023-05-18T18:06:23.609Z,78.50
2023-05-18T18:08:52.067Z,78.90
2023-05-18T18:11:19.572Z,79.60
2023-05-18T18:13:46.902Z,77.90
2023-05-18T18:16:14.520Z,78.70
2023-05-18T18:18:41.800Z,78.90
2023-05-18T18:21:08.919Z,78.30
2023-05-18T18:23:37.695Z,78.50
2023-05-18T18:26:05.492Z,78.00
2023-05-18T18:28:33.737Z,78.40
2023-05-18T18:31:02.105Z,78.50
2023-05-18T18:33:29.384Z,79.20
2023-05-18T18:35:57.600Z,78.70
2023-05-18T18:38:27.052Z,79.50
2023-05-18T18:41:00.806Z,79.40
2023-05-18T18:43:28.484Z,79.10
2023-05-18T18:45:57.274Z,78.50
2023-05-18T18:48:25.574Z,79.20
2023-05-18T18:50:53.296Z,81.50
2023-05-18T18:53:20.634Z,80.00
2023-05-18T18:55:48.046Z,84.00
2023-05-18T18:58:15.225Z,81.50
2023-05-18T19:00:42.417Z,82.70
2023-05-18T19:03:14.545Z,86.00
2023-05-18T19:05:41.973Z,86.40
2023-05-18T19:08:09.075Z,88.10
2023-05-18T19:10:36.207Z,88.70
2023-05-18T19:13:05.946Z,90.20
2023-05-18T19:15:34.870Z,91.10
2023-05-18T19:18:03.099Z,91.30
2023-05-18T19:20:30.453Z,90.90
2023-05-18T19:22:57.622Z,91.60
2023-05-18T19:25:25.725Z,92.20
2023-05-18T19:27:53.729Z,92.20
2023-05-18T19:30:21.793Z,92.80
2023-05-18T19:32:50.004Z,92.60
2023-05-18T19:35:19.790Z,92.80
2023-05-18T19:37:47.708Z,92.80
2023-05-18T19:40:14.988Z,94.80
2023-05-18T19:42:42.264Z,94.90
2023-05-18T19:45:09.792Z,95.40
2023-05-18T19:47:37.122Z,93.50
2023-05-18T19:50:04.725Z,93.20
2023-05-18T19:52:33.661Z,94.40
2023-05-18T19:55:01.983Z,95.90
2023-05-18T19:57:29.591Z,94.60
2023-05-18T19:59:57.974Z,94.80
2023-05-18T20:02:25.812Z,95.70
2023-05-18T20:04:53.796Z,95.00
2023-05-18T20:07:22.579Z,95.50
2023-05-18T20:09:53.023Z,95.40
2023-05-18T20:12:20.486Z,92.40
2023-05-18T20:14:48.524Z,94.20
2023-05-18T20:17:16.881Z,93.80
2023-05-18T20:19:50.843Z,93.30
2023-05-18T20:22:18.585Z,93.00
2023-05-18T20:24:46.239Z,93.80
2023-05-18T20:27:16.779Z,93.80
2023-05-18T20:29:44.143Z,94.70
2023-05-18T20:32:11.241Z,93.50
2023-05-18T20:34:38.377Z,94.70
2023-05-18T20:37:09.163Z,95.20
2023-05-18T20:39:39.935Z,93.70
2023-05-18T20:42:07.863Z,94.70
2023-05-18T20:44:35.082Z,95.10
2023-05-18T20:47:02.803Z,95.10
2023-05-18T20:49:30.119Z,94.30
2023-05-18T20:51:57.230Z,94.50
2023-05-18T20:54:24.386Z,94.20
2023-05-18T20:56:51.604Z,94.00
2023-05-18T20:59:19.208Z,94.50
2023-05-18T21:01:46.271Z,94.50
2023-05-18T21:04:13.771Z,94.80
2023-05-18T21:06:44.137Z,95.40
2023-05-18T21:09:11.965Z,93.20
2023-05-18T21:11:38.984Z,93.30
2023-05-18T21:14:06.098Z,93.50
2023-05-18T21:16:33.590Z,92.80
2023-05-18T21:19:01.079Z,93.70
2023-05-18T21:21:28.658Z,93.60
2023-05-18T21:23:56.084Z,92.50
2023-05-18T21:26:23.219Z,92.10
2023-05-18T21:28:50.352Z,92.10
2023-05-18T21:31:17.576Z,91.80
2023-05-18T21:33:48.275Z,92.00
2023-05-18T21:36:33.564Z,92.00
2023-05-18T21:39:05.607Z,92.30
2023-05-18T21:41:34.146Z,92.00
2023-05-18T21:44:01.214Z,92.30
2023-05-18T21:46:28.422Z,91.80
2023-05-18T21:48:55.586Z,92.00
2023-05-18T21:51:23.008Z,92.20
2023-05-18T21:53:50.412Z,92.80
2023-05-18T21:56:17.952Z,91.50
2023-05-18T21:58:45.028Z,91.40
2023-05-18T22:01:12.125Z,91.30
2023-05-18T22:03:39.916Z,90.80
2023-05-18T22:06:07.425Z,91.30
2023-05-18T22:08:34.455Z,91.90
2023-05-18T22:11:01.590Z,91.90
2023-05-18T22:13:28.732Z,91.90
2023-05-18T22:15:56.504Z,91.60
2023-05-18T22:18:26.890Z,92.20
2023-05-18T22:20:55.060Z,91.50
2023-05-18T22:23:26.272Z,91.50
2023-05-18T22:25:53.432Z,92.00
2023-05-18T22:28:21.748Z,93.50
2023-05-18T22:30:52.436Z,92.90
2023-05-18T22:33:21.263Z,94.10
2023-05-18T22:35:48.443Z,92.80
2023-05-18T22:38:16.844Z,92.90
2023-05-18T22:40:45.133Z,92.80
2023-05-18T22:43:12.223Z,93.60
2023-05-18T22:45:39.365Z,93.20
2023-05-18T22:48:06.668Z,93.40
2023-05-18T22:50:34.404Z,93.10
2023-05-18T22:53:02.382Z,94.00
2023-05-18T22:55:29.553Z,93.30
2023-05-18T22:57:56.738Z,92.90
2023-05-18T23:00:23.902Z,92.50
2023-05-18T23:02:53.137Z,93.60
2023-05-18T23:05:20.458Z,94.80
2023-05-18T23:07:47.676Z,94.70
2023-05-18T23:10:14.728Z,95.10
2023-05-18T23:12:41.808Z,94.70
2023-05-18T23:15:10.570Z,95.10
2023-05-18T23:17:42.414Z,95.70
2023-05-18T23:20:11.532Z,95.50
2023-05-18T23:22:38.647Z,95.50
2023-05-18T23:25:08.832Z,95.40
2023-05-18T23:27:36.106Z,94.50
2023-05-18T23:30:18.729Z,94.20
2023-05-18T23:32:46.996Z,94.40
2023-05-18T23:35:15.302Z,95.00
2023-05-18T23:37:42.876Z,95.10
2023-05-18T23:40:12.500Z,94.90
2023-05-18T23:42:40.179Z,95.20
2023-05-18T23:45:08.579Z,96.50
2023-05-18T23:47:36.353Z,97.30
2023-05-18T23:50:03.848Z,97.60
2023-05-18T23:52:33.976Z,97.90
2023-05-18T23:55:02.877Z,97.50
2023-05-18T23:57:31.564Z,96.80
2023-05-18T23:59:59.106Z,98.40
